createdAt,value
2023-04-08T00:01:14.325Z,101795.25
2023-04-08T00:03:42.219Z,101794.72
2023-04-08T00:06:10.144Z,101798.13
2023-04-08T00:08:39.264Z,101797.94
2023-04-08T00:11:07.292Z,101783.44
2023-04-08T00:13:35.039Z,101799.31
2023-04-08T00:16:03.177Z,101795.19
2023-04-08T00:18:30.891Z,101793.47
2023-04-08T00:20:58.643Z,101809.09
2023-04-08T00:23:26.362Z,101807.94
2023-04-08T00:25:55.430Z,101811.28
2023-04-08T00:28:23.164Z,101817.03
2023-04-08T00:30:51.355Z,101814.19
2023-04-08T00:33:19.109Z,101821.56
2023-04-08T00:35:47.277Z,101811.00
2023-04-08T00:38:15.016Z,101819.22
2023-04-08T00:40:42.871Z,101816.84
2023-04-08T00:43:12.112Z,101811.31
2023-04-08T00:45:39.859Z,101830.19
2023-04-08T00:48:07.702Z,101820.38
2023-04-08T00:50:35.430Z,101822.16
2023-04-08T00:53:03.151Z,101820.06
2023-04-08T00:55:30.874Z,101836.41
2023-04-08T00:57:59.430Z,101844.91
2023-04-08T01:00:31.495Z,101828.22
2023-04-08T01:03:08.878Z,101802.28
2023-04-08T01:05:44.954Z,101808.38
2023-04-08T01:08:13.211Z,101794.06
2023-04-08T01:10:44.389Z,101823.41
2023-04-08T01:13:15.593Z,101834.72
2023-04-08T01:15:46.269Z,101834.59
2023-04-08T01:18:16.745Z,101840.81
2023-04-08T01:20:45.411Z,101834.88
2023-04-08T01:23:21.982Z,101850.81
2023-04-08T01:25:52.955Z,101838.84
2023-04-08T01:28:22.128Z,101819.41
2023-04-08T01:30:51.058Z,101831.19
2023-04-08T01:33:20.617Z,101840.75
2023-04-08T01:35:48.754Z,101827.00
2023-04-08T01:38:19.189Z,101833.38
2023-04-08T01:40:48.920Z,101835.41
2023-04-08T01:43:20.508Z,101860.25
2023-04-08T01:45:49.861Z,101872.84
2023-04-08T01:48:17.768Z,101845.44
2023-04-08T01:50:46.566Z,101865.41
2023-04-08T01:53:14.434Z,101869.00
2023-04-08T01:55:44.037Z,101861.66
2023-04-08T01:58:18.173Z,101882.16
2023-04-08T02:00:48.317Z,101877.94
2023-04-08T02:03:20.025Z,101871.13
2023-04-08T02:05:48.090Z,101859.91
2023-04-08T02:08:15.781Z,101869.72
2023-04-08T02:10:43.524Z,101874.88
2023-04-08T02:13:11.271Z,101868.22
2023-04-08T02:15:44.120Z,101845.75
2023-04-08T02:18:17.122Z,101859.84
2023-04-08T02:20:48.914Z,101859.78
2023-04-08T02:23:23.519Z,101869.91
2023-04-08T02:25:51.607Z,101875.03
2023-04-08T02:28:19.968Z,101874.03
2023-04-08T02:30:51.135Z,101861.94
2023-04-08T02:33:22.527Z,101867.41
2023-04-08T02:35:52.135Z,101862.28
2023-04-08T02:38:20.233Z,101866.59
2023-04-08T02:40:50.807Z,101891.47
2023-04-08T02:43:18.554Z,101859.38
2023-04-08T02:45:46.820Z,101859.06
2023-04-08T02:48:14.595Z,101874.03
2023-04-08T02:50:43.672Z,101860.41
2023-04-08T02:53:11.431Z,101860.66
2023-04-08T02:55:40.101Z,101877.72
2023-04-08T02:58:07.855Z,101845.88
2023-04-08T03:00:35.879Z,101865.06
2023-04-08T03:03:03.816Z,101882.53
2023-04-08T03:05:31.633Z,101889.09
2023-04-08T03:08:00.709Z,101866.88
2023-04-08T03:10:28.518Z,101856.94
2023-04-08T03:12:56.292Z,101858.22
2023-04-08T03:15:24.057Z,101856.25
2023-04-08T03:17:51.843Z,101861.63
2023-04-08T03:20:19.622Z,101866.75
2023-04-08T03:22:47.372Z,101903.34
2023-04-08T03:25:16.517Z,101918.50
2023-04-08T03:27:44.237Z,101893.91
2023-04-08T03:30:12.305Z,101879.63
2023-04-08T03:32:40.070Z,101882.63
2023-04-08T03:35:08.450Z,101878.19
2023-04-08T03:37:36.202Z,101884.88
2023-04-08T03:40:04.990Z,101879.03
2023-04-08T03:42:35.084Z,101856.63
2023-04-08T03:45:02.812Z,101878.66
2023-04-08T03:47:30.588Z,101885.53
2023-04-08T03:49:58.354Z,101890.06
2023-04-08T03:52:26.104Z,101895.34
2023-04-08T03:54:53.806Z,101892.19
2023-04-08T03:57:21.565Z,101889.84
2023-04-08T03:59:50.656Z,101870.56
2023-04-08T04:02:18.486Z,101874.59
2023-04-08T04:04:46.341Z,101863.59
2023-04-08T04:07:14.096Z,101854.91
2023-04-08T04:09:41.776Z,101890.00
2023-04-08T04:12:09.529Z,101912.13
2023-04-08T04:14:37.252Z,101925.16
2023-04-08T04:17:06.393Z,101937.50
2023-04-08T04:19:34.126Z,101927.59
2023-04-08T04:22:01.881Z,101960.44
2023-04-08T04:24:29.588Z,101957.50
2023-04-08T04:26:57.354Z,101970.34
2023-04-08T04:29:25.179Z,101948.81
2023-04-08T04:31:52.984Z,101980.78
2023-04-08T04:34:22.099Z,101965.44
2023-04-08T04:36:49.835Z,101982.03
2023-04-08T04:39:17.550Z,101977.59
2023-04-08T04:41:46.068Z,101937.59
2023-04-08T04:44:13.813Z,101940.16
2023-04-08T04:46:41.573Z,101930.19
2023-04-08T04:49:09.688Z,101952.38
2023-04-08T04:51:38.780Z,101984.56
2023-04-08T04:54:06.515Z,101958.22
2023-04-08T04:56:34.272Z,101936.72
2023-04-08T04:59:02.026Z,101962.16
2023-04-08T05:01:30.063Z,101957.34
2023-04-08T05:03:57.808Z,101949.03
2023-04-08T05:06:26.414Z,101953.22
2023-04-08T05:08:55.635Z,101950.31
2023-04-08T05:11:23.332Z,101934.47
2023-04-08T05:13:51.052Z,101937.91
2023-04-08T05:16:18.802Z,101955.13
2023-04-08T05:18:46.515Z,101941.53
2023-04-08T05:21:14.213Z,101951.88
2023-04-08T05:23:41.892Z,101945.56
2023-04-08T05:26:11.311Z,101946.50
2023-04-08T05:28:39.013Z,101940.19
2023-04-08T05:31:06.814Z,101965.56
2023-04-08T05:33:34.606Z,101964.56
2023-04-08T05:36:02.788Z,101948.41
2023-04-08T05:38:30.590Z,101966.16
2023-04-08T05:40:58.284Z,101972.25
2023-04-08T05:43:27.421Z,101981.66
2023-04-08T05:45:55.257Z,101968.84
2023-04-08T05:48:23.134Z,101969.34
2023-04-08T05:50:51.018Z,101976.09
2023-04-08T05:53:18.766Z,101961.31
2023-04-08T05:55:46.521Z,101972.78
2023-04-08T05:58:14.232Z,101974.59
2023-04-08T06:00:43.299Z,101965.28
2023-04-08T06:03:11.536Z,101956.19
2023-04-08T06:05:39.485Z,101973.47
2023-04-08T06:08:07.484Z,101981.16
2023-04-08T06:10:35.161Z,101980.50
2023-04-08T06:13:02.858Z,101998.34
2023-04-08T06:15:30.602Z,101984.97
2023-04-08T06:17:59.786Z,101968.53
2023-04-08T06:20:28.306Z,101991.53
2023-04-08T06:22:56.053Z,102002.81
2023-04-08T06:25:23.840Z,101983.25
2023-04-08T06:27:51.601Z,101994.00
2023-04-08T06:30:19.471Z,101981.00
2023-04-08T06:32:48.252Z,101990.22
2023-04-08T06:35:17.563Z,101996.63
2023-04-08T06:37:45.363Z,102006.53
2023-04-08T06:40:13.304Z,102007.88
2023-04-08T06:42:43.108Z,101991.81
2023-04-08T06:45:12.013Z,102010.91
2023-04-08T06:47:39.770Z,101997.75
2023-04-08T06:50:08.477Z,102007.72
2023-04-08T06:52:37.539Z,101998.03
2023-04-08T06:55:06.015Z,102022.91
2023-04-08T06:57:33.778Z,102024.81
2023-04-08T07:00:01.506Z,102040.22
2023-04-08T07:02:29.290Z,102036.75
2023-04-08T07:04:57.054Z,102042.03
2023-04-08T07:07:24.776Z,102049.41
2023-04-08T07:09:53.884Z,102051.81
2023-04-08T07:12:21.979Z,102057.34
2023-04-08T07:14:49.669Z,102074.59
2023-04-08T07:17:17.368Z,102074.00
2023-04-08T07:19:45.340Z,102065.25
2023-04-08T07:22:13.043Z,102049.00
2023-04-08T07:24:42.854Z,102088.06
2023-04-08T07:27:11.991Z,102051.47
2023-04-08T07:29:39.719Z,102084.31
2023-04-08T07:32:08.592Z,102087.63
2023-04-08T07:34:36.740Z,102069.25
2023-04-08T07:37:04.490Z,102081.50
2023-04-08T07:39:32.248Z,102075.38
2023-04-08T07:41:59.953Z,102081.59
2023-04-08T07:44:29.087Z,102082.31
2023-04-08T07:46:56.842Z,102102.50
2023-04-08T07:49:24.637Z,102116.94
2023-04-08T07:51:53.133Z,102110.94
2023-04-08T07:54:20.860Z,102100.81
2023-04-08T07:56:48.588Z,102086.34
2023-04-08T07:59:16.518Z,102071.69
2023-04-08T08:01:46.920Z,102077.44
2023-04-08T08:04:14.927Z,102060.00
2023-04-08T08:06:42.755Z,102066.31
2023-04-08T08:09:11.030Z,102076.63
2023-04-08T08:11:38.760Z,102087.00
2023-04-08T08:14:07.927Z,102118.53
2023-04-08T08:16:36.484Z,102103.34
2023-04-08T08:19:07.261Z,102089.03
2023-04-08T08:21:37.990Z,102113.59
2023-04-08T08:24:05.864Z,102113.09
2023-04-08T08:26:36.731Z,102136.69
2023-04-08T08:29:05.060Z,102124.34
2023-04-08T08:31:32.810Z,102127.84
2023-04-08T08:34:00.625Z,102162.22
2023-04-08T08:36:29.832Z,102165.44
2023-04-08T08:38:57.577Z,102148.22
2023-04-08T08:41:25.903Z,102162.25
2023-04-08T08:43:54.698Z,102139.88
2023-04-08T08:46:22.536Z,102161.13
2023-04-08T08:48:50.374Z,102180.31
2023-04-08T08:51:18.078Z,102185.56
2023-04-08T08:53:47.229Z,102192.22
2023-04-08T08:56:17.858Z,102192.13
2023-04-08T08:58:47.568Z,102202.25
2023-04-08T09:01:32.350Z,102169.63
2023-04-08T09:04:11.990Z,102201.25
2023-04-08T09:06:40.436Z,102219.91
2023-04-08T09:09:11.271Z,102246.91
2023-04-08T09:11:40.916Z,102225.13
2023-04-08T09:14:22.185Z,102239.81
2023-04-08T09:16:50.764Z,102262.09
2023-04-08T09:19:18.651Z,102266.59
2023-04-08T09:21:47.673Z,102299.53
2023-04-08T09:24:30.750Z,102282.09
2023-04-08T09:26:58.512Z,102277.13
2023-04-08T09:29:29.853Z,102318.50
2023-04-08T09:32:00.097Z,102301.78
2023-04-08T09:34:29.274Z,102295.50
2023-04-08T09:36:57.153Z,102264.53
2023-04-08T09:39:24.984Z,102302.81
2023-04-08T09:42:01.004Z,102327.72
2023-04-08T09:44:29.926Z,102353.44
2023-04-08T09:47:06.938Z,102361.06
2023-04-08T09:49:39.044Z,102355.44
2023-04-08T09:52:09.363Z,102335.91
2023-04-08T09:54:44.427Z,102334.47
2023-04-08T09:57:17.360Z,102326.47
2023-04-08T09:59:53.733Z,102300.97
2023-04-08T10:02:29.367Z,102293.50
2023-04-08T10:05:04.993Z,102313.16
2023-04-08T10:07:35.815Z,102303.34
2023-04-08T10:10:03.968Z,102326.59
2023-04-08T10:12:33.363Z,102329.38
2023-04-08T10:15:23.300Z,102317.16
2023-04-08T10:17:51.080Z,102355.00
2023-04-08T10:20:51.623Z,102324.66
2023-04-08T10:23:21.257Z,102345.19
2023-04-08T10:25:50.014Z,102346.47
2023-04-08T10:28:36.707Z,102364.19
2023-04-08T10:31:04.676Z,102334.03
2023-04-08T10:33:34.638Z,102345.31
2023-04-08T10:36:11.571Z,102366.63
2023-04-08T10:38:39.908Z,102383.78
2023-04-08T10:41:07.987Z,102406.47
2023-04-08T10:43:37.802Z,102377.34
2023-04-08T10:46:06.458Z,102372.94
2023-04-08T10:48:34.349Z,102389.78
2023-04-08T10:51:03.848Z,102405.16
2023-04-08T10:53:33.427Z,102405.34
2023-04-08T10:56:08.098Z,102412.13
2023-04-08T10:58:37.497Z,102418.25
2023-04-08T11:01:07.058Z,102418.47
2023-04-08T11:03:36.079Z,102425.13
2023-04-08T11:06:04.333Z,102422.75
2023-04-08T11:08:32.450Z,102396.28
2023-04-08T11:11:01.647Z,102421.56
2023-04-08T11:13:29.853Z,102407.28
2023-04-08T11:16:00.325Z,102413.19
2023-04-08T11:18:28.646Z,102432.59
2023-04-08T11:20:58.362Z,102433.13
2023-04-08T11:23:28.004Z,102456.75
2023-04-08T11:25:56.680Z,102472.97
2023-04-08T11:28:24.652Z,102456.44
2023-04-08T11:30:53.344Z,102474.97
2023-04-08T11:33:22.638Z,102477.41
2023-04-08T11:35:52.470Z,102482.41
2023-04-08T11:38:23.935Z,102496.56
2023-04-08T11:40:55.287Z,102502.69
2023-04-08T11:43:23.437Z,102489.75
2023-04-08T11:45:51.534Z,102508.75
2023-04-08T11:48:19.439Z,102467.03
2023-04-08T11:50:50.717Z,102458.13
2023-04-08T11:53:19.681Z,102487.03
2023-04-08T11:55:48.502Z,102503.63
2023-04-08T11:58:16.471Z,102504.19
2023-04-08T12:00:45.658Z,102506.41
2023-04-08T12:03:14.140Z,102508.06
2023-04-08T12:05:42.526Z,102497.41
2023-04-08T12:08:11.732Z,102509.25
2023-04-08T12:10:39.518Z,102500.59
2023-04-08T12:13:07.308Z,102509.47
2023-04-08T12:15:35.096Z,102512.47
2023-04-08T12:18:02.946Z,102509.72
2023-04-08T12:20:30.744Z,102523.13
2023-04-08T12:22:58.861Z,102511.25
2023-04-08T12:25:29.140Z,102486.13
2023-04-08T12:27:56.894Z,102499.03
2023-04-08T12:30:24.616Z,102509.13
2023-04-08T12:32:53.322Z,102521.16
2023-04-08T12:35:21.269Z,102491.88
2023-04-08T12:37:49.005Z,102492.88
2023-04-08T12:40:19.158Z,102486.31
2023-04-08T12:42:48.479Z,102449.22
2023-04-08T12:45:16.233Z,102455.88
2023-04-08T12:47:44.025Z,102487.84
2023-04-08T12:50:11.898Z,102514.91
2023-04-08T12:52:39.707Z,102507.47
2023-04-08T12:55:08.593Z,102552.25
2023-04-08T12:57:36.715Z,102534.25
2023-04-08T13:00:07.060Z,102522.63
2023-04-08T13:02:34.894Z,102491.19
2023-04-08T13:05:02.746Z,102532.34
2023-04-08T13:07:30.478Z,102507.16
2023-04-08T13:09:58.159Z,102503.22
2023-04-08T13:12:25.871Z,102520.00
2023-04-08T13:14:53.579Z,102532.81
2023-04-08T13:17:22.784Z,102516.28
2023-04-08T13:19:51.180Z,102514.78
2023-04-08T13:22:18.943Z,102517.66
2023-04-08T13:24:46.676Z,102516.13
2023-04-08T13:27:14.422Z,102511.91
2023-04-08T13:29:42.157Z,102514.22
2023-04-08T13:32:10.058Z,102505.09
2023-04-08T13:34:39.249Z,102520.13
2023-04-08T13:37:06.945Z,102530.81
2023-04-08T13:39:34.638Z,102524.84
2023-04-08T13:42:02.785Z,102515.84
2023-04-08T13:44:30.490Z,102534.31
2023-04-08T13:46:58.161Z,102541.88
2023-04-08T13:49:25.929Z,102543.56
2023-04-08T13:51:55.249Z,102531.22
2023-04-08T13:54:22.960Z,102527.13
2023-04-08T13:56:50.832Z,102543.41
2023-04-08T13:59:18.555Z,102531.47
2023-04-08T14:01:46.377Z,102531.63
2023-04-08T14:04:14.202Z,102533.41
2023-04-08T14:06:41.945Z,102540.53
2023-04-08T14:09:11.574Z,102534.13
2023-04-08T14:11:39.386Z,102529.66
2023-04-08T14:14:07.119Z,102539.31
2023-04-08T14:16:35.976Z,102536.31
2023-04-08T14:19:04.257Z,102534.78
2023-04-08T14:21:32.026Z,102546.38
2023-04-08T14:24:01.961Z,102554.69
2023-04-08T14:26:35.683Z,102541.03
2023-04-08T14:29:05.387Z,102548.22
2023-04-08T14:31:33.847Z,102545.69
2023-04-08T14:34:01.970Z,102551.59
2023-04-08T14:36:30.285Z,102563.81
2023-04-08T14:38:58.368Z,102553.22
2023-04-08T14:41:27.177Z,102569.56
2023-04-08T14:43:56.357Z,102557.06
2023-04-08T14:46:25.380Z,102569.53
2023-04-08T14:48:54.967Z,102537.22
2023-04-08T14:51:22.715Z,102562.97
2023-04-08T14:53:50.460Z,102551.84
2023-04-08T14:56:18.254Z,102541.13
2023-04-08T14:58:46.012Z,102552.88
2023-04-08T15:01:15.315Z,102529.59
2023-04-08T15:03:43.136Z,102523.25
2023-04-08T15:06:11.016Z,102530.47
2023-04-08T15:08:39.136Z,102538.88
2023-04-08T15:11:06.864Z,102530.28
2023-04-08T15:13:35.908Z,102535.91
2023-04-08T15:16:03.916Z,102535.56
2023-04-08T15:18:33.021Z,102517.34
2023-04-08T15:21:00.795Z,102516.91
2023-04-08T15:23:28.528Z,102537.34
2023-04-08T15:25:57.082Z,102531.16
2023-04-08T15:28:25.128Z,102514.50
2023-04-08T15:30:52.824Z,102539.38
2023-04-08T15:33:21.273Z,102554.69
2023-04-08T15:35:50.448Z,102565.56
2023-04-08T15:38:18.510Z,102550.97
2023-04-08T15:40:48.077Z,102536.25
2023-04-08T15:43:16.593Z,102543.41
2023-04-08T15:45:46.369Z,102546.59
2023-04-08T15:48:14.106Z,102548.50
2023-04-08T15:50:42.168Z,102547.34
2023-04-08T15:53:11.406Z,102512.25
2023-04-08T15:55:39.990Z,102519.69
2023-04-08T15:58:08.051Z,102537.59
2023-04-08T16:00:35.839Z,102530.91
2023-04-08T16:03:05.513Z,102524.03
2023-04-08T16:05:35.850Z,102535.22
2023-04-08T16:08:04.456Z,102524.38
2023-04-08T16:10:34.183Z,102530.91
2023-04-08T16:13:01.992Z,102525.41
2023-04-08T16:15:29.732Z,102544.25
2023-04-08T16:17:57.485Z,102530.91
2023-04-08T16:20:26.221Z,102538.72
2023-04-08T16:22:54.089Z,102549.78
2023-04-08T16:25:22.008Z,102544.50
2023-04-08T16:27:51.080Z,102546.16
2023-04-08T16:30:18.818Z,102560.78
2023-04-08T16:32:46.636Z,102563.63
2023-04-08T16:35:14.443Z,102519.00
2023-04-08T16:37:42.192Z,102541.00
2023-04-08T16:40:11.386Z,102537.72
2023-04-08T16:42:39.084Z,102538.66
2023-04-08T16:45:09.634Z,102546.53
2023-04-08T16:47:39.291Z,102553.72
2023-04-08T16:50:08.348Z,102569.56
2023-04-08T16:52:36.254Z,102566.22
2023-04-08T16:55:04.262Z,102556.13
2023-04-08T16:57:32.052Z,102576.75
2023-04-08T16:59:59.844Z,102574.53
2023-04-08T17:02:29.245Z,102548.34
2023-04-08T17:04:57.206Z,102542.09
2023-04-08T17:07:25.016Z,102533.47
2023-04-08T17:09:56.177Z,102538.22
2023-04-08T17:12:24.213Z,102532.06
2023-04-08T17:14:52.007Z,102558.16
2023-04-08T17:17:19.731Z,102544.44
2023-04-08T17:19:48.824Z,102549.47
2023-04-08T17:22:16.554Z,102528.41
2023-04-08T17:24:47.782Z,102525.78
2023-04-08T17:27:16.155Z,102521.28
2023-04-08T17:29:44.038Z,102521.56
2023-04-08T17:32:12.501Z,102500.97
2023-04-08T17:34:40.965Z,102489.09
2023-04-08T17:37:10.445Z,102485.00
2023-04-08T17:39:40.803Z,102488.41
2023-04-08T17:42:08.945Z,102474.75
2023-04-08T17:44:37.006Z,102486.63
2023-04-08T17:47:05.227Z,102502.22
2023-04-08T17:49:32.950Z,102462.53
2023-04-08T17:52:00.705Z,102459.00
2023-04-08T17:54:31.424Z,102472.53
2023-04-08T17:56:59.157Z,102478.47
2023-04-08T17:59:26.895Z,102489.81
2023-04-08T18:01:55.256Z,102479.72
2023-04-08T18:04:23.897Z,102487.19
2023-04-08T18:06:51.741Z,102480.00
2023-04-08T18:09:19.490Z,102478.19
2023-04-08T18:11:48.588Z,102482.25
2023-04-08T18:14:16.605Z,102513.19
2023-04-08T18:16:44.380Z,102509.03
2023-04-08T18:19:13.460Z,102509.38
2023-04-08T18:21:41.194Z,102507.09
2023-04-08T18:24:09.422Z,102504.41
2023-04-08T18:26:37.262Z,102494.81
2023-04-08T18:29:06.651Z,102495.31
2023-04-08T18:31:34.462Z,102495.13
2023-04-08T18:34:03.169Z,102493.63
2023-04-08T18:36:31.647Z,102479.44
2023-04-08T18:38:59.347Z,102485.75
2023-04-08T18:41:27.923Z,102504.66
2023-04-08T18:43:56.507Z,102499.25
2023-04-08T18:46:25.626Z,102513.81
2023-04-08T18:48:53.399Z,102489.47
2023-04-08T18:51:21.133Z,102494.28
2023-04-08T18:53:49.858Z,102518.28
2023-04-08T18:56:18.333Z,102500.41
2023-04-08T18:58:47.033Z,102506.25
2023-04-08T19:01:16.250Z,102527.50
2023-04-08T19:03:45.844Z,102560.97
2023-04-08T19:06:14.484Z,102559.00
2023-04-08T19:08:42.500Z,102553.31
2023-04-08T19:11:10.370Z,102540.72
2023-04-08T19:13:38.085Z,102519.22
2023-04-08T19:16:06.538Z,102528.19
2023-04-08T19:18:34.353Z,102531.19
2023-04-08T19:21:03.512Z,102538.94
2023-04-08T19:23:32.075Z,102559.16
2023-04-08T19:25:59.838Z,102574.09
2023-04-08T19:28:27.555Z,102557.75
2023-04-08T19:30:55.308Z,102535.53
2023-04-08T19:33:23.643Z,102560.31
2023-04-08T19:35:51.435Z,102532.03
2023-04-08T19:38:20.636Z,102538.56
2023-04-08T19:40:48.934Z,102551.06
2023-04-08T19:43:17.575Z,102539.09
2023-04-08T19:45:45.445Z,102594.69
2023-04-08T19:48:13.850Z,102585.72
2023-04-08T19:50:42.707Z,102570.34
2023-04-08T19:53:10.454Z,102540.59
2023-04-08T19:55:39.598Z,102569.09
2023-04-08T19:58:07.882Z,102550.47
2023-04-08T20:00:37.374Z,102566.94
2023-04-08T20:03:05.905Z,102547.38
2023-04-08T20:05:33.990Z,102562.31
2023-04-08T20:08:01.748Z,102551.78
2023-04-08T20:10:29.554Z,102521.28
2023-04-08T20:12:58.662Z,102537.53
2023-04-08T20:15:26.501Z,102551.06
2023-04-08T20:17:54.386Z,102567.09
2023-04-08T20:20:22.805Z,102571.00
2023-04-08T20:22:50.813Z,102590.28
2023-04-08T20:25:18.703Z,102574.56
2023-04-08T20:27:46.544Z,102574.19
2023-04-08T20:30:15.774Z,102579.13
2023-04-08T20:32:43.505Z,102577.78
2023-04-08T20:35:11.779Z,102573.59
2023-04-08T20:37:39.511Z,102568.44
2023-04-08T20:40:08.746Z,102571.19
2023-04-08T20:42:36.474Z,102582.53
2023-04-08T20:45:04.376Z,102568.81
2023-04-08T20:47:33.675Z,102578.59
2023-04-08T20:50:01.740Z,102572.34
2023-04-08T20:52:29.482Z,102584.22
2023-04-08T20:54:57.228Z,102574.09
2023-04-08T20:57:24.993Z,102587.34
2023-04-08T20:59:52.743Z,102589.97
2023-04-08T21:02:21.865Z,102594.16
2023-04-08T21:04:51.291Z,102570.25
2023-04-08T21:07:19.064Z,102588.66
2023-04-08T21:09:48.678Z,102579.38
2023-04-08T21:12:16.470Z,102586.78
2023-04-08T21:14:45.269Z,102582.31
2023-04-08T21:17:13.037Z,102574.09
2023-04-08T21:19:41.967Z,102586.47
2023-04-08T21:22:11.113Z,102564.19
2023-04-08T21:24:38.802Z,102559.44
2023-04-08T21:27:06.611Z,102563.50
2023-04-08T21:29:34.358Z,102553.72
2023-04-08T21:32:02.553Z,102577.34
2023-04-08T21:34:31.083Z,102599.25
2023-04-08T21:36:58.867Z,102578.53
2023-04-08T21:39:27.952Z,102591.38
2023-04-08T21:41:55.685Z,102587.81
2023-04-08T21:44:23.448Z,102599.13
2023-04-08T21:46:51.188Z,102604.16
2023-04-08T21:49:18.906Z,102597.03
2023-04-08T21:51:46.640Z,102593.56
2023-04-08T21:54:14.429Z,102612.38
2023-04-08T21:56:43.717Z,102603.78
2023-04-08T21:59:11.472Z,102607.00
2023-04-08T22:01:39.337Z,102606.53
2023-04-08T22:04:07.394Z,102616.84
2023-04-08T22:06:35.270Z,102625.63
2023-04-08T22:09:03.353Z,102615.03
2023-04-08T22:11:31.089Z,102616.81
2023-04-08T22:14:00.237Z,102598.09
2023-04-08T22:16:28.007Z,102604.56
2023-04-08T22:18:55.745Z,102621.69
2023-04-08T22:21:23.742Z,102598.31
2023-04-08T22:23:51.490Z,102617.09
2023-04-08T22:26:19.209Z,102611.63
2023-04-08T22:28:46.934Z,102617.78
2023-04-08T22:31:16.334Z,102620.50
2023-04-08T22:33:44.145Z,102624.03
2023-04-08T22:36:11.890Z,102635.09
2023-04-08T22:38:39.714Z,102616.19
2023-04-08T22:41:07.461Z,102626.88
2023-04-08T22:43:35.161Z,102644.72
2023-04-08T22:46:02.876Z,102658.63
2023-04-08T22:48:31.977Z,102640.00
2023-04-08T22:50:59.713Z,102631.47
2023-04-08T22:53:28.022Z,102631.13
2023-04-08T22:55:55.752Z,102631.84
2023-04-08T22:58:23.454Z,102626.00
2023-04-08T23:00:51.224Z,102623.72
2023-04-08T23:03:19.014Z,102628.00
2023-04-08T23:05:48.150Z,102614.56
2023-04-08T23:08:15.924Z,102600.47
2023-04-08T23:10:43.605Z,102589.75
2023-04-08T23:13:11.358Z,102584.56
2023-04-08T23:15:39.122Z,102597.66
2023-04-08T23:18:06.926Z,102606.78
2023-04-08T23:20:35.536Z,102573.28
2023-04-08T23:23:04.652Z,102576.31
2023-04-08T23:25:35.997Z,102597.28
2023-04-08T23:28:03.689Z,102606.72
2023-04-08T23:30:31.401Z,102594.28
2023-04-08T23:32:59.282Z,102574.56
2023-04-08T23:35:27.005Z,102586.66
2023-04-08T23:37:54.749Z,102576.28
2023-04-08T23:40:23.831Z,102573.72
2023-04-08T23:42:51.581Z,102569.53
2023-04-08T23:45:19.450Z,102573.63
2023-04-08T23:47:47.170Z,102577.78
2023-04-08T23:50:14.940Z,102585.31
2023-04-08T23:52:42.760Z,102574.16
2023-04-08T23:55:11.144Z,102580.22
2023-04-08T23:57:42.757Z,102586.75
